sensor_id;sensor_type;location;lat;lon;timestamp;pressure;altitude;pressure_sealevel;temperature;humidity
75136;BME280;63707;52.212;9.540;2023-11-18T00:02:16;100815.28;;;3.74;100.00
75136;BME280;63707;52.212;9.540;2023-11-18T00:04:43;100808.91;;;3.75;100.00
75136;BME280;63707;52.212;9.540;2023-11-18T00:07:08;100810.34;;;3.79;100.00
75136;BME280;63707;52.212;9.540;2023-11-18T00:09:36;100809.03;;;3.73;100.00
75136;BME280;63707;52.212;9.540;2023-11-18T00:12:02;100810.75;;;3.74;100.00
75136;BME280;63707;52.212;9.540;2023-11-18T00:14:29;100809.59;;;3.77;100.00
75136;BME280;63707;52.212;9.540;2023-11-18T00:16:55;100808.06;;;3.74;100.00
75136;BME280;63707;52.212;9.540;2023-11-18T00:19:20;100804.53;;;3.64;100.00
75136;BME280;63707;52.212;9.540;2023-11-18T00:21:46;100802.97;;;3.52;100.00
75136;BME280;63707;52.212;9.540;2023-11-18T00:24:11;100810.06;;;3.43;100.00
75136;BME280;63707;52.212;9.540;2023-11-18T00:26:40;100805.53;;;3.34;100.00
75136;BME280;63707;52.212;9.540;2023-11-18T00:29:05;100801.13;;;3.24;100.00
75136;BME280;63707;52.212;9.540;2023-11-18T00:31:30;100805.78;;;3.12;100.00
75136;BME280;63707;52.212;9.540;2023-11-18T00:33:56;100809.59;;;3.00;100.00
75136;BME280;63707;52.212;9.540;2023-11-18T00:36:21;100804.78;;;2.94;100.00
75136;BME280;63707;52.212;9.540;2023-11-18T00:38:47;100808.91;;;2.98;100.00
75136;BME280;63707;52.212;9.540;2023-11-18T00:41:12;100802.66;;;3.07;100.00
75136;BME280;63707;52.212;9.540;2023-11-18T00:43:39;100805.66;;;3.13;100.00
75136;BME280;63707;52.212;9.540;2023-11-18T00:46:05;100809.19;;;3.14;100.00
75136;BME280;63707;52.212;9.540;2023-11-18T00:48:30;100806.50;;;3.14;100.00
75136;BME280;63707;52.212;9.540;2023-11-18T00:50:56;100802.97;;;3.13;100.00
75136;BME280;63707;52.212;9.540;2023-11-18T00:53:21;100812.31;;;3.19;100.00
75136;BME280;63707;52.212;9.540;2023-11-18T00:55:47;100810.31;;;3.21;100.00
75136;BME280;63707;52.212;9.540;2023-11-18T00:58:13;100827.47;;;3.20;100.00
75136;BME280;63707;52.212;9.540;2023-11-18T01:00:40;100826.06;;;3.16;100.00
75136;BME280;63707;52.212;9.540;2023-11-18T01:03:05;100833.84;;;3.19;100.00
75136;BME280;63707;52.212;9.540;2023-11-18T01:05:31;100833.00;;;3.19;100.00
75136;BME280;63707;52.212;9.540;2023-11-18T01:07:56;100829.75;;;3.15;100.00
75136;BME280;63707;52.212;9.540;2023-11-18T01:10:22;100836.97;;;3.14;100.00
75136;BME280;63707;52.212;9.540;2023-11-18T01:12:47;100837.41;;;3.20;100.00
75136;BME280;63707;52.212;9.540;2023-11-18T01:15:13;100841.94;;;3.19;100.00
75136;BME280;63707;52.212;9.540;2023-11-18T01:17:40;100847.47;;;3.17;100.00
75136;BME280;63707;52.212;9.540;2023-11-18T01:20:07;100842.50;;;3.23;100.00
75136;BME280;63707;52.212;9.540;2023-11-18T01:22:36;100853.41;;;3.21;100.00
75136;BME280;63707;52.212;9.540;2023-11-18T01:25:03;100853.13;;;3.24;100.00
75136;BME280;63707;52.212;9.540;2023-11-18T01:27:29;100856.69;;;3.25;100.00
75136;BME280;63707;52.212;9.540;2023-11-18T01:29:54;100858.53;;;3.24;100.00
75136;BME280;63707;52.212;9.540;2023-11-18T01:32:20;100854.84;;;3.25;100.00
75136;BME280;63707;52.212;9.540;2023-11-18T01:34:46;100860.94;;;3.27;100.00
75136;BME280;63707;52.212;9.540;2023-11-18T01:37:15;100861.78;;;3.28;100.00
75136;BME280;63707;52.212;9.540;2023-11-18T01:39:41;100852.84;;;3.27;100.00
75136;BME280;63707;52.212;9.540;2023-11-18T01:42:06;100855.41;;;3.29;100.00
75136;BME280;63707;52.212;9.540;2023-11-18T01:44:32;100865.06;;;3.31;100.00
75136;BME280;63707;52.212;9.540;2023-11-18T01:46:59;100856.13;;;3.31;100.00
75136;BME280;63707;52.212;9.540;2023-11-18T01:49:28;100858.94;;;3.29;100.00
75136;BME280;63707;52.212;9.540;2023-11-18T01:51:55;100866.31;;;3.27;100.00
75136;BME280;63707;52.212;9.540;2023-11-18T01:54:22;100863.34;;;3.30;100.00
75136;BME280;63707;52.212;9.540;2023-11-18T01:56:49;100870.31;;;3.33;100.00
75136;BME280;63707;52.212;9.540;2023-11-18T01:59:15;100866.22;;;3.38;100.00
75136;BME280;63707;52.212;9.540;2023-11-18T02:01:46;100863.81;;;3.35;100.00
75136;BME280;63707;52.212;9.540;2023-11-18T02:04:13;100858.56;;;3.34;100.00
75136;BME280;63707;52.212;9.540;2023-11-18T02:06:39;100861.41;;;3.32;100.00
75136;BME280;63707;52.212;9.540;2023-11-18T02:09:06;100863.25;;;3.32;100.00
75136;BME280;63707;52.212;9.540;2023-11-18T02:11:36;100868.34;;;3.35;100.00
75136;BME280;63707;52.212;9.540;2023-11-18T02:14:07;100871.31;;;3.32;100.00
75136;BME280;63707;52.212;9.540;2023-11-18T02:16:36;100877.78;;;3.20;100.00
75136;BME280;63707;52.212;9.540;2023-11-18T02:19:03;100867.00;;;3.10;100.00
75136;BME280;63707;52.212;9.540;2023-11-18T02:21:34;100871.38;;;3.01;100.00
75136;BME280;63707;52.212;9.540;2023-11-18T02:24:00;100870.09;;;2.96;100.00
75136;BME280;63707;52.212;9.540;2023-11-18T02:26:27;100870.66;;;2.90;100.00
75136;BME280;63707;52.212;9.540;2023-11-18T02:28:53;100878.28;;;2.84;100.00
75136;BME280;63707;52.212;9.540;2023-11-18T02:31:33;100877.16;;;2.87;100.00
75136;BME280;63707;52.212;9.540;2023-11-18T02:34:10;100875.84;;;2.81;100.00
75136;BME280;63707;52.212;9.540;2023-11-18T02:36:43;100879.38;;;2.82;100.00
75136;BME280;63707;52.212;9.540;2023-11-18T02:39:12;100876.69;;;2.82;100.00
75136;BME280;63707;52.212;9.540;2023-11-18T02:41:46;100875.31;;;2.88;100.00
75136;BME280;63707;52.212;9.540;2023-11-18T02:44:14;100880.28;;;2.92;100.00
75136;BME280;63707;52.212;9.540;2023-11-18T02:46:43;100878.03;;;2.97;100.00
75136;BME280;63707;52.212;9.540;2023-11-18T02:49:09;100883.84;;;3.02;100.00
75136;BME280;63707;52.212;9.540;2023-11-18T02:51:35;100879.03;;;3.06;100.00
75136;BME280;63707;52.212;9.540;2023-11-18T02:54:04;100874.78;;;3.03;100.00
75136;BME280;63707;52.212;9.540;2023-11-18T02:56:31;100873.78;;;2.95;100.00
75136;BME280;63707;52.212;9.540;2023-11-18T02:58:58;100868.66;;;2.92;100.00
75136;BME280;63707;52.212;9.540;2023-11-18T03:01:26;100870.66;;;2.90;100.00
75136;BME280;63707;52.212;9.540;2023-11-18T03:03:52;100873.06;;;2.93;100.00
75136;BME280;63707;52.212;9.540;2023-11-18T03:06:18;100869.81;;;2.99;100.00
75136;BME280;63707;52.212;9.540;2023-11-18T03:08:43;100872.81;;;3.05;100.00
75136;BME280;63707;52.212;9.540;2023-11-18T03:11:09;100872.53;;;3.08;100.00
75136;BME280;63707;52.212;9.540;2023-11-18T03:13:34;100871.25;;;3.12;100.00
75136;BME280;63707;52.212;9.540;2023-11-18T03:16:01;100876.38;;;3.15;100.00
75136;BME280;63707;52.212;9.540;2023-11-18T03:18:28;100874.38;;;3.17;100.00
75136;BME280;63707;52.212;9.540;2023-11-18T03:20:54;100867.44;;;3.15;100.00
75136;BME280;63707;52.212;9.540;2023-11-18T03:23:20;100879.19;;;3.14;100.00
75136;BME280;63707;52.212;9.540;2023-11-18T03:25:46;100873.38;;;3.09;100.00
75136;BME280;63707;52.212;9.540;2023-11-18T03:28:12;100877.78;;;3.10;100.00
75136;BME280;63707;52.212;9.540;2023-11-18T03:30:37;100875.22;;;3.08;100.00
75136;BME280;63707;52.212;9.540;2023-11-18T03:33:04;100880.47;;;3.10;100.00
75136;BME280;63707;52.212;9.540;2023-11-18T03:35:29;100875.34;;;3.07;100.00
75136;BME280;63707;52.212;9.540;2023-11-18T03:37:55;100880.88;;;3.05;100.00
75136;BME280;63707;52.212;9.540;2023-11-18T03:40:20;100888.69;;;3.08;100.00
75136;BME280;63707;52.212;9.540;2023-11-18T03:42:46;100882.16;;;3.11;100.00
75136;BME280;63707;52.212;9.540;2023-11-18T03:45:12;100895.06;;;3.17;100.00
75136;BME280;63707;52.212;9.540;2023-11-18T03:47:40;100890.25;;;3.21;100.00
75136;BME280;63707;52.212;9.540;2023-11-18T03:50:07;100886.44;;;3.23;100.00
75136;BME280;63707;52.212;9.540;2023-11-18T03:52:38;100885.59;;;3.23;100.00
75136;BME280;63707;52.212;9.540;2023-11-18T03:55:04;100888.56;;;3.20;100.00
75136;BME280;63707;52.212;9.540;2023-11-18T03:57:29;100876.22;;;3.17;100.00
75136;BME280;63707;52.212;9.540;2023-11-18T03:59:55;100881.75;;;3.15;100.00
75136;BME280;63707;52.212;9.540;2023-11-18T04:02:20;100875.78;;;3.12;100.00
75136;BME280;63707;52.212;9.540;2023-11-18T04:04:46;100870.28;;;3.13;100.00
75136;BME280;63707;52.212;9.540;2023-11-18T04:07:13;100871.81;;;3.06;100.00
75136;BME280;63707;52.212;9.540;2023-11-18T04:09:38;100876.34;;;3.06;100.00
75136;BME280;63707;52.212;9.540;2023-11-18T04:12:06;100875.09;;;3.10;100.00
75136;BME280;63707;52.212;9.540;2023-11-18T04:14:33;100869.56;;;3.11;100.00
75136;BME280;63707;52.212;9.540;2023-11-18T04:16:58;100874.09;;;3.11;100.00
75136;BME280;63707;52.212;9.540;2023-11-18T04:19:24;100867.44;;;3.15;100.00
75136;BME280;63707;52.212;9.540;2023-11-18T04:21:49;100862.34;;;3.12;100.00
75136;BME280;63707;52.212;9.540;2023-11-18T04:24:17;100869.69;;;3.10;100.00
75136;BME280;63707;52.212;9.540;2023-11-18T04:26:42;100868.56;;;3.12;100.00
75136;BME280;63707;52.212;9.540;2023-11-18T04:29:08;100859.50;;;3.13;100.00
75136;BME280;63707;52.212;9.540;2023-11-18T04:31:33;100866.16;;;3.19;100.00
75136;BME280;63707;52.212;9.540;2023-11-18T04:34:02;100859.09;;;3.18;100.00
75136;BME280;63707;52.212;9.540;2023-11-18T04:36:29;100862.75;;;3.17;100.00
75136;BME280;63707;52.212;9.540;2023-11-18T04:38:56;100864.16;;;3.11;100.00
75136;BME280;63707;52.212;9.540;2023-11-18T04:41:23;100862.75;;;3.07;100.00
75136;BME280;63707;52.212;9.540;2023-11-18T04:43:48;100861.47;;;3.02;100.00
75136;BME280;63707;52.212;9.540;2023-11-18T04:46:14;100867.69;;;3.02;100.00
75136;BME280;63707;52.212;9.540;2023-11-18T04:48:39;100854.94;;;3.04;100.00
75136;BME280;63707;52.212;9.540;2023-11-18T04:51:05;100858.78;;;3.02;100.00
75136;BME280;63707;52.212;9.540;2023-11-18T04:53:31;100852.97;;;2.97;100.00
75136;BME280;63707;52.212;9.540;2023-11-18T04:55:57;100851.53;;;2.93;100.00
75136;BME280;63707;52.212;9.540;2023-11-18T04:58:24;100849.81;;;2.92;100.00
75136;BME280;63707;52.212;9.540;2023-11-18T05:00:50;100846.28;;;2.91;100.00
75136;BME280;63707;52.212;9.540;2023-11-18T05:03:16;100849.28;;;2.98;100.00
75136;BME280;63707;52.212;9.540;2023-11-18T05:05:41;100844.59;;;3.00;100.00
75136;BME280;63707;52.212;9.540;2023-11-18T05:08:08;100846.84;;;2.95;100.00
75136;BME280;63707;52.212;9.540;2023-11-18T05:10:46;100847.97;;;2.92;100.00
75136;BME280;63707;52.212;9.540;2023-11-18T05:13:12;100841.88;;;2.90;100.00
75136;BME280;63707;52.212;9.540;2023-11-18T05:15:42;100843.28;;;2.84;100.00
75136;BME280;63707;52.212;9.540;2023-11-18T05:18:10;100839.56;;;2.76;100.00
75136;BME280;63707;52.212;9.540;2023-11-18T05:20:36;100841.69;;;2.72;100.00
75136;BME280;63707;52.212;9.540;2023-11-18T05:23:02;100836.72;;;2.77;100.00
75136;BME280;63707;52.212;9.540;2023-11-18T05:25:28;100832.78;;;2.81;100.00
75136;BME280;63707;52.212;9.540;2023-11-18T05:27:54;100841.69;;;2.82;100.00
75136;BME280;63707;52.212;9.540;2023-11-18T05:30:19;100838.75;;;2.85;100.00
75136;BME280;63707;52.212;9.540;2023-11-18T05:32:46;100826.03;;;2.87;100.00
75136;BME280;63707;52.212;9.540;2023-11-18T05:35:12;100820.34;;;2.90;100.00
75136;BME280;63707;52.212;9.540;2023-11-18T05:37:38;100827.75;;;2.98;100.00
75136;BME280;63707;52.212;9.540;2023-11-18T05:40:07;100818.13;;;3.05;100.00
75136;BME280;63707;52.212;9.540;2023-11-18T05:42:33;100814.28;;;3.07;100.00
75136;BME280;63707;52.212;9.540;2023-11-18T05:45:02;100815.13;;;3.08;100.00
75136;BME280;63707;52.212;9.540;2023-11-18T05:47:27;100810.47;;;3.10;100.00
75136;BME280;63707;52.212;9.540;2023-11-18T05:49:54;100807.34;;;3.05;100.00
75136;BME280;63707;52.212;9.540;2023-11-18T05:52:20;100811.16;;;3.12;100.00
75136;BME280;63707;52.212;9.540;2023-11-18T05:54:45;100802.69;;;3.16;100.00
75136;BME280;63707;52.212;9.540;2023-11-18T05:57:12;100811.75;;;3.15;100.00
75136;BME280;63707;52.212;9.540;2023-11-18T05:59:38;100812.72;;;3.14;100.00
75136;BME280;63707;52.212;9.540;2023-11-18T06:02:03;100814.72;;;3.12;100.00
75136;BME280;63707;52.212;9.540;2023-11-18T06:04:29;100821.25;;;3.20;100.00
75136;BME280;63707;52.212;9.540;2023-11-18T06:06:57;100818.13;;;3.24;100.00
75136;BME280;63707;52.212;9.540;2023-11-18T06:09:23;100809.22;;;3.33;100.00
75136;BME280;63707;52.212;9.540;2023-11-18T06:11:50;100806.25;;;3.36;100.00
75136;BME280;63707;52.212;9.540;2023-11-18T06:14:16;100813.44;;;3.26;100.00
75136;BME280;63707;52.212;9.540;2023-11-18T06:16:42;100804.38;;;3.17;100.00
75136;BME280;63707;52.212;9.540;2023-11-18T06:19:07;100807.78;;;3.20;100.00
75136;BME280;63707;52.212;9.540;2023-11-18T06:21:33;100803.81;;;3.14;100.00
75136;BME280;63707;52.212;9.540;2023-11-18T06:24:01;100814.84;;;3.11;100.00
75136;BME280;63707;52.212;9.540;2023-11-18T06:26:29;100805.50;;;3.05;100.00
75136;BME280;63707;52.212;9.540;2023-11-18T06:28:55;100814.16;;;3.09;100.00
75136;BME280;63707;52.212;9.540;2023-11-18T06:31:20;100817.25;;;3.04;100.00
75136;BME280;63707;52.212;9.540;2023-11-18T06:33:47;100825.47;;;3.03;100.00
75136;BME280;63707;52.212;9.540;2023-11-18T06:36:16;100825.91;;;3.08;100.00
75136;BME280;63707;52.212;9.540;2023-11-18T06:38:42;100827.31;;;3.02;100.00
75136;BME280;63707;52.212;9.540;2023-11-18T06:41:12;100828.09;;;2.83;100.00
75136;BME280;63707;52.212;9.540;2023-11-18T06:43:39;100820.88;;;2.74;100.00
75136;BME280;63707;52.212;9.540;2023-11-18T06:46:18;100823.66;;;2.63;100.00
75136;BME280;63707;52.212;9.540;2023-11-18T06:48:46;100836.22;;;2.53;100.00
75136;BME280;63707;52.212;9.540;2023-11-18T06:51:13;100841.00;;;2.40;100.00
75136;BME280;63707;52.212;9.540;2023-11-18T06:53:40;100848.00;;;2.31;100.00
75136;BME280;63707;52.212;9.540;2023-11-18T06:56:06;100852.09;;;2.26;100.00
75136;BME280;63707;52.212;9.540;2023-11-18T06:58:33;100850.69;;;2.31;100.00
75136;BME280;63707;52.212;9.540;2023-11-18T07:00:59;100843.34;;;2.33;100.00
75136;BME280;63707;52.212;9.540;2023-11-18T07:03:24;100850.28;;;2.36;100.00
75136;BME280;63707;52.212;9.540;2023-11-18T07:05:50;100856.94;;;2.32;100.00
75136;BME280;63707;52.212;9.540;2023-11-18T07:08:15;100853.06;;;2.45;100.00
75136;BME280;63707;52.212;9.540;2023-11-18T07:10:41;100844.41;;;2.42;100.00
75136;BME280;63707;52.212;9.540;2023-11-18T07:13:06;100848.66;;;2.44;100.00
75136;BME280;63707;52.212;9.540;2023-11-18T07:15:35;100836.78;;;2.47;100.00
75136;BME280;63707;52.212;9.540;2023-11-18T07:18:01;100835.41;;;2.62;100.00
75136;BME280;63707;52.212;9.540;2023-11-18T07:20:26;100839.41;;;2.68;100.00
75136;BME280;63707;52.212;9.540;2023-11-18T07:22:52;100832.13;;;2.99;100.00
75136;BME280;63707;52.212;9.540;2023-11-18T07:25:18;100823.94;;;3.87;100.00
75136;BME280;63707;52.212;9.540;2023-11-18T07:27:44;100835.44;;;3.51;100.00
75136;BME280;63707;52.212;9.540;2023-11-18T07:30:10;100834.56;;;3.11;100.00
75136;BME280;63707;52.212;9.540;2023-11-18T07:32:37;100827.53;;;2.80;100.00
75136;BME280;63707;52.212;9.540;2023-11-18T07:35:06;100821.03;;;2.82;100.00
75136;BME280;63707;52.212;9.540;2023-11-18T07:37:34;100828.09;;;2.83;100.00
75136;BME280;63707;52.212;9.540;2023-11-18T07:40:00;100838.16;;;2.81;100.00
75136;BME280;63707;52.212;9.540;2023-11-18T07:42:26;100843.19;;;2.96;100.00
75136;BME280;63707;52.212;9.540;2023-11-18T07:44:51;100848.00;;;3.02;100.00
75136;BME280;63707;52.212;9.540;2023-11-18T07:47:17;100840.94;;;3.10;100.00
75136;BME280;63707;52.212;9.540;2023-11-18T07:49:43;100852.13;;;3.15;100.00
75136;BME280;63707;52.212;9.540;2023-11-18T07:52:10;100855.13;;;3.22;100.00
75136;BME280;63707;52.212;9.540;2023-11-18T07:54:36;100847.66;;;3.35;100.00
75136;BME280;63707;52.212;9.540;2023-11-18T07:57:03;100848.50;;;3.36;100.00
75136;BME280;63707;52.212;9.540;2023-11-18T07:59:33;100852.88;;;3.46;100.00
75136;BME280;63707;52.212;9.540;2023-11-18T08:01:58;100849.06;;;3.59;100.00
75136;BME280;63707;52.212;9.540;2023-11-18T08:04:26;100842.97;;;3.37;100.00
75136;BME280;63707;52.212;9.540;2023-11-18T08:06:53;100852.19;;;3.54;100.00
75136;BME280;63707;52.212;9.540;2023-11-18T08:09:19;100836.88;;;3.84;100.00
75136;BME280;63707;52.212;9.540;2023-11-18T08:11:48;100841.44;;;4.30;100.00
75136;BME280;63707;52.212;9.540;2023-11-18T08:14:14;100833.78;;;4.62;100.00
75136;BME280;63707;52.212;9.540;2023-11-18T08:16:40;100822.44;;;5.85;100.00
75136;BME280;63707;52.212;9.540;2023-11-18T08:19:05;100814.72;;;6.42;100.00
75136;BME280;63707;52.212;9.540;2023-11-18T08:21:33;100824.53;;;5.37;100.00
75136;BME280;63707;52.212;9.540;2023-11-18T08:24:00;100811.53;;;5.94;100.00
75136;BME280;63707;52.212;9.540;2023-11-18T08:26:26;100807.47;;;5.73;100.00
75136;BME280;63707;52.212;9.540;2023-11-18T08:28:52;100800.03;;;5.75;100.00
75136;BME280;63707;52.212;9.540;2023-11-18T08:31:17;100810.19;;;4.64;100.00
75136;BME280;63707;52.212;9.540;2023-11-18T08:33:43;100806.50;;;5.11;100.00
75136;BME280;63707;52.212;9.540;2023-11-18T08:36:10;100809.16;;;5.38;100.00
75136;BME280;63707;52.212;9.540;2023-11-18T08:38:37;100806.44;;;5.02;100.00
75136;BME280;63707;52.212;9.540;2023-11-18T08:41:05;100803.22;;;5.34;100.00
75136;BME280;63707;52.212;9.540;2023-11-18T08:43:34;100812.16;;;5.17;100.00
75136;BME280;63707;52.212;9.540;2023-11-18T08:46:00;100821.09;;;5.00;100.00
75136;BME280;63707;52.212;9.540;2023-11-18T08:48:26;100824.88;;;5.07;100.00
75136;BME280;63707;52.212;9.540;2023-11-18T08:50:53;100817.06;;;5.04;100.00
75136;BME280;63707;52.212;9.540;2023-11-18T08:53:19;100821.31;;;4.89;100.00
75136;BME280;63707;52.212;9.540;2023-11-18T08:55:51;100823.63;;;5.01;100.00
75136;BME280;63707;52.212;9.540;2023-11-18T08:58:20;100821.47;;;5.05;100.00
75136;BME280;63707;52.212;9.540;2023-11-18T09:00:53;100833.31;;;4.39;100.00
75136;BME280;63707;52.212;9.540;2023-11-18T09:03:20;100836.38;;;4.54;100.00
75136;BME280;63707;52.212;9.540;2023-11-18T09:06:03;100837.22;;;4.55;100.00
75136;BME280;63707;52.212;9.540;2023-11-18T09:08:30;100827.84;;;4.59;100.00
75136;BME280;63707;52.212;9.540;2023-11-18T09:11:00;100827.34;;;5.00;100.00
75136;BME280;63707;52.212;9.540;2023-11-18T09:13:28;100811.88;;;4.75;100.00
75136;BME280;63707;52.212;9.540;2023-11-18T09:15:57;100808.81;;;4.88;100.00
75136;BME280;63707;52.212;9.540;2023-11-18T09:18:23;100810.72;;;5.23;100.00
75136;BME280;63707;52.212;9.540;2023-11-18T09:20:50;100806.47;;;5.20;100.00
75136;BME280;63707;52.212;9.540;2023-11-18T09:23:17;100806.47;;;5.38;100.00
75136;BME280;63707;52.212;9.540;2023-11-18T09:25:45;100805.63;;;5.37;100.00
75136;BME280;63707;52.212;9.540;2023-11-18T09:28:13;100809.56;;;5.43;100.00
75136;BME280;63707;52.212;9.540;2023-11-18T09:30:41;100810.00;;;5.74;100.00
75136;BME280;63707;52.212;9.540;2023-11-18T09:33:17;100808.94;;;5.49;100.00
75136;BME280;63707;52.212;9.540;2023-11-18T09:35:51;100803.91;;;5.72;100.00
75136;BME280;63707;52.212;9.540;2023-11-18T09:38:17;100804.59;;;5.92;100.00
75136;BME280;63707;52.212;9.540;2023-11-18T09:40:43;100806.72;;;5.88;100.00
75136;BME280;63707;52.212;9.540;2023-11-18T09:43:11;100810.28;;;5.89;100.00
75136;BME280;63707;52.212;9.540;2023-11-18T09:45:43;100808.50;;;6.15;100.00
75136;BME280;63707;52.212;9.540;2023-11-18T09:48:12;100815.59;;;6.50;100.00
75136;BME280;63707;52.212;9.540;2023-11-18T09:50:43;100827.91;;;5.57;100.00
75136;BME280;63707;52.212;9.540;2023-11-18T09:53:12;100826.69;;;6.31;100.00
75136;BME280;63707;52.212;9.540;2023-11-18T09:55:45;100819.59;;;5.68;100.00
75136;BME280;63707;52.212;9.540;2023-11-18T09:58:15;100809.84;;;5.58;100.00
75136;BME280;63707;52.212;9.540;2023-11-18T10:00:47;100806.38;;;5.48;100.00
75136;BME280;63707;52.212;9.540;2023-11-18T10:03:16;100801.03;;;5.91;100.00
75136;BME280;63707;52.212;9.540;2023-11-18T10:05:42;100800.69;;;5.33;100.00
75136;BME280;63707;52.212;9.540;2023-11-18T10:08:08;100781.56;;;6.14;100.00
75136;BME280;63707;52.212;9.540;2023-11-18T10:10:34;100786.06;;;6.05;100.00
75136;BME280;63707;52.212;9.540;2023-11-18T10:13:04;100769.44;;;5.92;100.00
75136;BME280;63707;52.212;9.540;2023-11-18T10:15:34;100760.81;;;6.56;100.00
75136;BME280;63707;52.212;9.540;2023-11-18T10:18:02;100754.81;;;6.37;100.00
75136;BME280;63707;52.212;9.540;2023-11-18T10:20:45;100750.06;;;6.05;100.00
75136;BME280;63707;52.212;9.540;2023-11-18T10:23:12;100749.22;;;5.60;100.00
75136;BME280;63707;52.212;9.540;2023-11-18T10:25:45;100756.31;;;5.61;100.00
75136;BME280;63707;52.212;9.540;2023-11-18T10:28:21;100759.38;;;5.84;100.00
75136;BME280;63707;52.212;9.540;2023-11-18T10:30:47;100752.69;;;5.53;100.00
75136;BME280;63707;52.212;9.540;2023-11-18T10:33:15;100764.44;;;5.61;100.00
75136;BME280;63707;52.212;9.540;2023-11-18T10:35:49;100759.22;;;6.38;100.00
75136;BME280;63707;52.212;9.540;2023-11-18T10:38:21;100759.94;;;6.48;100.00
75136;BME280;63707;52.212;9.540;2023-11-18T10:40:52;100770.25;;;6.44;100.00
75136;BME280;63707;52.212;9.540;2023-11-18T10:43:17;100763.91;;;6.27;100.00
75136;BME280;63707;52.212;9.540;2023-11-18T10:45:43;100759.53;;;6.35;100.00
75136;BME280;63707;52.212;9.540;2023-11-18T10:48:12;100753.41;;;5.98;100.00
75136;BME280;63707;52.212;9.540;2023-11-18T10:50:45;100756.34;;;6.13;100.00
75136;BME280;63707;52.212;9.540;2023-11-18T10:53:11;100749.94;;;6.14;100.00
75136;BME280;63707;52.212;9.540;2023-11-18T10:55:39;100741.09;;;6.30;100.00
75136;BME280;63707;52.212;9.540;2023-11-18T10:58:05;100733.63;;;6.24;100.00
75136;BME280;63707;52.212;9.540;2023-11-18T11:00:48;100725.03;;;6.37;100.00
75136;BME280;63707;52.212;9.540;2023-11-18T11:03:14;100722.59;;;6.17;100.00
75136;BME280;63707;52.212;9.540;2023-11-18T11:05:40;100718.06;;;6.26;100.00
75136;BME280;63707;52.212;9.540;2023-11-18T11:08:09;100715.63;;;6.57;100.00
75136;BME280;63707;52.212;9.540;2023-11-18T11:10:38;100719.31;;;6.40;100.00
75136;BME280;63707;52.212;9.540;2023-11-18T11:13:07;100703.44;;;6.53;100.00
75136;BME280;63707;52.212;9.540;2023-11-18T11:15:36;100697.06;;;6.70;100.00
75136;BME280;63707;52.212;9.540;2023-11-18T11:18:05;100693.69;;;6.68;100.00
75136;BME280;63707;52.212;9.540;2023-11-18T11:20:41;100698.13;;;6.85;100.00
75136;BME280;63707;52.212;9.540;2023-11-18T11:23:14;100689.00;;;6.36;100.00
75136;BME280;63707;52.212;9.540;2023-11-18T11:25:53;100677.22;;;6.61;100.00
75136;BME280;63707;52.212;9.540;2023-11-18T11:28:23;100659.59;;;6.41;100.00
75136;BME280;63707;52.212;9.540;2023-11-18T11:30:55;100660.78;;;6.55;100.00
75136;BME280;63707;52.212;9.540;2023-11-18T11:33:26;100675.94;;;7.06;100.00
75136;BME280;63707;52.212;9.540;2023-11-18T11:35:56;100674.25;;;6.81;100.00
75136;BME280;63707;52.212;9.540;2023-11-18T11:38:24;100667.31;;;6.86;100.00
75136;BME280;63707;52.212;9.540;2023-11-18T11:40:51;100662.16;;;6.59;100.00
75136;BME280;63707;52.212;9.540;2023-11-18T11:43:19;100661.66;;;6.55;100.00
75136;BME280;63707;52.212;9.540;2023-11-18T11:45:48;100656.84;;;6.25;100.00
75136;BME280;63707;52.212;9.540;2023-11-18T11:48:14;100660.06;;;6.28;100.00
75136;BME280;63707;52.212;9.540;2023-11-18T11:50:52;100652.78;;;6.29;100.00
75136;BME280;63707;52.212;9.540;2023-11-18T11:53:22;100642.31;;;6.34;100.00
75136;BME280;63707;52.212;9.540;2023-11-18T11:55:52;100623.56;;;5.98;100.00
75136;BME280;63707;52.212;9.540;2023-11-18T11:58:28;100608.63;;;5.86;100.00
75136;BME280;63707;52.212;9.540;2023-11-18T12:00:54;100602.75;;;5.91;100.00
75136;BME280;63707;52.212;9.540;2023-11-18T12:03:21;100602.63;;;6.00;100.00
75136;BME280;63707;52.212;9.540;2023-11-18T12:05:49;100598.34;;;5.90;100.00
75136;BME280;63707;52.212;9.540;2023-11-18T12:08:14;100605.22;;;6.18;100.00
75136;BME280;63707;52.212;9.540;2023-11-18T12:10:53;100618.44;;;6.29;100.00
75136;BME280;63707;52.212;9.540;2023-11-18T12:13:19;100616.56;;;6.22;100.00
75136;BME280;63707;52.212;9.540;2023-11-18T12:15:48;100619.78;;;6.17;100.00
75136;BME280;63707;52.212;9.540;2023-11-18T12:18:19;100616.00;;;6.10;100.00
75136;BME280;63707;52.212;9.540;2023-11-18T12:20:47;100616.53;;;6.14;100.00
75136;BME280;63707;52.212;9.540;2023-11-18T12:23:13;100616.06;;;6.18;100.00
75136;BME280;63707;52.212;9.540;2023-11-18T12:25:43;100608.28;;;6.23;100.00
75136;BME280;63707;52.212;9.540;2023-11-18T12:28:14;100613.34;;;6.18;100.00
75136;BME280;63707;52.212;9.540;2023-11-18T12:30:42;100610.75;;;6.09;100.00
75136;BME280;63707;52.212;9.540;2023-11-18T12:34:01;100592.94;;;5.90;100.00
75136;BME280;63707;52.212;9.540;2023-11-18T12:37:11;100601.44;;;6.03;100.00
75136;BME280;63707;52.212;9.540;2023-11-18T12:42:59;100603.88;;;5.80;100.00
75136;BME280;63707;52.212;9.540;2023-11-18T12:48:47;100587.53;;;5.64;100.00
75136;BME280;63707;52.212;9.540;2023-11-18T12:51:15;100590.03;;;5.57;100.00
75136;BME280;63707;52.212;9.540;2023-11-18T12:53:47;100594.59;;;5.57;100.00
75136;BME280;63707;52.212;9.540;2023-11-18T12:56:14;100582.44;;;5.53;100.00
75136;BME280;63707;52.212;9.540;2023-11-18T12:58:40;100578.38;;;5.57;100.00
75136;BME280;63707;52.212;9.540;2023-11-18T13:01:07;100570.59;;;5.54;100.00